sensor_id;sensor_type;location;lat;lon;timestamp;P1;durP1;ratioP1;P2;durP2;ratioP2
14187;SDS011;7175;51.978;5.330;2023-08-06T00:00:43;136.40;;;125.77;;
14187;SDS011;7175;51.978;5.330;2023-08-06T00:03:11;129.10;;;118.40;;
14187;SDS011;7175;51.978;5.330;2023-08-06T00:05:41;130.10;;;119.60;;
14187;SDS011;7175;51.978;5.330;2023-08-06T00:08:10;130.27;;;120.07;;
14187;SDS011;7175;51.978;5.330;2023-08-06T00:10:39;128.70;;;118.20;;
14187;SDS011;7175;51.978;5.330;2023-08-06T00:13:07;126.20;;;116.00;;
14187;SDS011;7175;51.978;5.330;2023-08-06T00:15:36;127.90;;;117.70;;
14187;SDS011;7175;51.978;5.330;2023-08-06T00:18:04;130.43;;;119.77;;
14187;SDS011;7175;51.978;5.330;2023-08-06T00:20:32;128.60;;;118.10;;
14187;SDS011;7175;51.978;5.330;2023-08-06T00:23:00;127.57;;;117.53;;
14187;SDS011;7175;51.978;5.330;2023-08-06T00:25:47;127.30;;;117.20;;
14187;SDS011;7175;51.978;5.330;2023-08-06T00:28:15;126.33;;;116.23;;
14187;SDS011;7175;51.978;5.330;2023-08-06T00:30:43;126.93;;;116.83;;
14187;SDS011;7175;51.978;5.330;2023-08-06T00:33:13;130.27;;;119.83;;
14187;SDS011;7175;51.978;5.330;2023-08-06T00:35:41;125.80;;;115.50;;
14187;SDS011;7175;51.978;5.330;2023-08-06T00:38:09;125.60;;;115.27;;
14187;SDS011;7175;51.978;5.330;2023-08-06T00:40:37;128.73;;;118.20;;
14187;SDS011;7175;51.978;5.330;2023-08-06T00:43:07;131.03;;;120.33;;
14187;SDS011;7175;51.978;5.330;2023-08-06T00:45:37;129.93;;;119.43;;
14187;SDS011;7175;51.978;5.330;2023-08-06T00:48:05;129.40;;;119.00;;
14187;SDS011;7175;51.978;5.330;2023-08-06T00:50:34;128.50;;;118.27;;
14187;SDS011;7175;51.978;5.330;2023-08-06T00:53:03;125.97;;;115.90;;
14187;SDS011;7175;51.978;5.330;2023-08-06T00:55:31;127.10;;;117.00;;
14187;SDS011;7175;51.978;5.330;2023-08-06T00:58:00;130.57;;;120.30;;
14187;SDS011;7175;51.978;5.330;2023-08-06T01:00:30;132.60;;;122.40;;
14187;SDS011;7175;51.978;5.330;2023-08-06T01:02:59;126.57;;;116.47;;
14187;SDS011;7175;51.978;5.330;2023-08-06T01:05:27;129.03;;;118.80;;
14187;SDS011;7175;51.978;5.330;2023-08-06T01:08:08;127.70;;;117.40;;
14187;SDS011;7175;51.978;5.330;2023-08-06T01:10:48;129.23;;;119.03;;
14187;SDS011;7175;51.978;5.330;2023-08-06T01:13:27;127.43;;;117.30;;
14187;SDS011;7175;51.978;5.330;2023-08-06T01:16:02;128.17;;;117.90;;
14187;SDS011;7175;51.978;5.330;2023-08-06T01:18:31;127.73;;;117.33;;
14187;SDS011;7175;51.978;5.330;2023-08-06T01:21:01;132.13;;;121.57;;
14187;SDS011;7175;51.978;5.330;2023-08-06T01:23:30;134.43;;;123.93;;
14187;SDS011;7175;51.978;5.330;2023-08-06T01:26:02;133.67;;;123.10;;
14187;SDS011;7175;51.978;5.330;2023-08-06T01:28:40;132.80;;;122.10;;
14187;SDS011;7175;51.978;5.330;2023-08-06T01:31:26;130.70;;;120.00;;
14187;SDS011;7175;51.978;5.330;2023-08-06T01:33:58;135.93;;;125.03;;
14187;SDS011;7175;51.978;5.330;2023-08-06T01:36:29;136.93;;;126.03;;
14187;SDS011;7175;51.978;5.330;2023-08-06T01:38:58;132.70;;;122.13;;
14187;SDS011;7175;51.978;5.330;2023-08-06T01:41:27;127.37;;;117.07;;
14187;SDS011;7175;51.978;5.330;2023-08-06T01:43:55;128.77;;;118.57;;
14187;SDS011;7175;51.978;5.330;2023-08-06T01:46:23;127.20;;;117.10;;
14187;SDS011;7175;51.978;5.330;2023-08-06T01:48:51;123.70;;;113.80;;
14187;SDS011;7175;51.978;5.330;2023-08-06T01:51:19;122.00;;;112.20;;
14187;SDS011;7175;51.978;5.330;2023-08-06T01:53:48;121.37;;;111.57;;
14187;SDS011;7175;51.978;5.330;2023-08-06T01:56:16;122.97;;;113.07;;
14187;SDS011;7175;51.978;5.330;2023-08-06T01:58:45;122.63;;;112.83;;
14187;SDS011;7175;51.978;5.330;2023-08-06T02:01:13;122.33;;;112.30;;
14187;SDS011;7175;51.978;5.330;2023-08-06T02:03:41;127.83;;;117.20;;
14187;SDS011;7175;51.978;5.330;2023-08-06T02:06:09;129.33;;;118.53;;
14187;SDS011;7175;51.978;5.330;2023-08-06T02:08:38;129.50;;;118.57;;
14187;SDS011;7175;51.978;5.330;2023-08-06T02:11:07;129.77;;;118.87;;
14187;SDS011;7175;51.978;5.330;2023-08-06T02:13:35;127.87;;;117.20;;
14187;SDS011;7175;51.978;5.330;2023-08-06T02:16:03;129.83;;;119.00;;
14187;SDS011;7175;51.978;5.330;2023-08-06T02:18:34;129.80;;;118.90;;
14187;SDS011;7175;51.978;5.330;2023-08-06T02:21:02;128.27;;;117.70;;
14187;SDS011;7175;51.978;5.330;2023-08-06T02:23:30;128.70;;;117.90;;
14187;SDS011;7175;51.978;5.330;2023-08-06T02:25:59;130.30;;;119.30;;
14187;SDS011;7175;51.978;5.330;2023-08-06T02:28:29;127.20;;;116.30;;
14187;SDS011;7175;51.978;5.330;2023-08-06T02:30:57;129.40;;;118.47;;
14187;SDS011;7175;51.978;5.330;2023-08-06T02:33:25;133.60;;;122.20;;
14187;SDS011;7175;51.978;5.330;2023-08-06T02:35:58;131.20;;;120.10;;
14187;SDS011;7175;51.978;5.330;2023-08-06T02:38:27;134.90;;;123.17;;
14187;SDS011;7175;51.978;5.330;2023-08-06T02:40:55;132.23;;;121.00;;
14187;SDS011;7175;51.978;5.330;2023-08-06T02:43:23;130.83;;;119.50;;
14187;SDS011;7175;51.978;5.330;2023-08-06T02:45:56;132.03;;;120.73;;
14187;SDS011;7175;51.978;5.330;2023-08-06T02:48:25;131.50;;;120.40;;
14187;SDS011;7175;51.978;5.330;2023-08-06T02:50:53;130.70;;;119.63;;
14187;SDS011;7175;51.978;5.330;2023-08-06T02:53:26;127.07;;;115.87;;
14187;SDS011;7175;51.978;5.330;2023-08-06T02:55:54;129.73;;;118.43;;
14187;SDS011;7175;51.978;5.330;2023-08-06T02:58:23;130.47;;;118.97;;
14187;SDS011;7175;51.978;5.330;2023-08-06T03:01:02;134.57;;;122.97;;
14187;SDS011;7175;51.978;5.330;2023-08-06T03:03:31;134.07;;;122.33;;
14187;SDS011;7175;51.978;5.330;2023-08-06T03:06:00;130.70;;;119.00;;
14187;SDS011;7175;51.978;5.330;2023-08-06T03:08:29;134.17;;;122.50;;
14187;SDS011;7175;51.978;5.330;2023-08-06T03:10:56;132.63;;;121.13;;
14187;SDS011;7175;51.978;5.330;2023-08-06T03:13:25;132.43;;;120.83;;
14187;SDS011;7175;51.978;5.330;2023-08-06T03:15:54;135.23;;;123.53;;
14187;SDS011;7175;51.978;5.330;2023-08-06T03:18:25;134.20;;;122.50;;
14187;SDS011;7175;51.978;5.330;2023-08-06T03:20:54;134.23;;;122.43;;
14187;SDS011;7175;51.978;5.330;2023-08-06T03:23:24;130.00;;;118.33;;
14187;SDS011;7175;51.978;5.330;2023-08-06T03:25:52;133.73;;;121.97;;
14187;SDS011;7175;51.978;5.330;2023-08-06T03:28:20;136.37;;;124.57;;
14187;SDS011;7175;51.978;5.330;2023-08-06T03:30:58;136.50;;;124.70;;
14187;SDS011;7175;51.978;5.330;2023-08-06T03:33:28;133.57;;;121.97;;
14187;SDS011;7175;51.978;5.330;2023-08-06T03:35:56;138.00;;;126.20;;
14187;SDS011;7175;51.978;5.330;2023-08-06T03:38:27;137.30;;;125.70;;
14187;SDS011;7175;51.978;5.330;2023-08-06T03:40:55;130.50;;;119.20;;
14187;SDS011;7175;51.978;5.330;2023-08-06T03:43:23;129.83;;;118.67;;
14187;SDS011;7175;51.978;5.330;2023-08-06T03:45:51;130.50;;;119.43;;
14187;SDS011;7175;51.978;5.330;2023-08-06T03:48:19;132.63;;;121.33;;
14187;SDS011;7175;51.978;5.330;2023-08-06T03:50:48;132.73;;;121.40;;
14187;SDS011;7175;51.978;5.330;2023-08-06T03:53:16;135.17;;;123.60;;
14187;SDS011;7175;51.978;5.330;2023-08-06T03:55:44;135.30;;;123.40;;
14187;SDS011;7175;51.978;5.330;2023-08-06T03:58:12;134.43;;;122.60;;
14187;SDS011;7175;51.978;5.330;2023-08-06T04:00:40;134.47;;;122.87;;
14187;SDS011;7175;51.978;5.330;2023-08-06T04:03:09;133.23;;;121.43;;
14187;SDS011;7175;51.978;5.330;2023-08-06T04:05:37;134.50;;;122.47;;
14187;SDS011;7175;51.978;5.330;2023-08-06T04:08:06;139.73;;;127.53;;
14187;SDS011;7175;51.978;5.330;2023-08-06T04:10:34;140.13;;;127.40;;
14187;SDS011;7175;51.978;5.330;2023-08-06T04:13:02;140.47;;;127.87;;
14187;SDS011;7175;51.978;5.330;2023-08-06T04:15:30;140.77;;;128.17;;
14187;SDS011;7175;51.978;5.330;2023-08-06T04:18:01;141.23;;;128.40;;
14187;SDS011;7175;51.978;5.330;2023-08-06T04:20:29;139.27;;;126.60;;
14187;SDS011;7175;51.978;5.330;2023-08-06T04:22:57;140.00;;;127.17;;
14187;SDS011;7175;51.978;5.330;2023-08-06T04:25:26;141.20;;;128.70;;
14187;SDS011;7175;51.978;5.330;2023-08-06T04:27:54;143.90;;;131.30;;
14187;SDS011;7175;51.978;5.330;2023-08-06T04:30:22;144.83;;;132.03;;
14187;SDS011;7175;51.978;5.330;2023-08-06T04:32:50;148.23;;;134.83;;
14187;SDS011;7175;51.978;5.330;2023-08-06T04:35:18;149.87;;;136.23;;
14187;SDS011;7175;51.978;5.330;2023-08-06T04:37:46;158.90;;;145.10;;
14187;SDS011;7175;51.978;5.330;2023-08-06T04:40:14;160.10;;;146.80;;
14187;SDS011;7175;51.978;5.330;2023-08-06T04:42:46;154.10;;;141.40;;
14187;SDS011;7175;51.978;5.330;2023-08-06T04:45:14;155.00;;;141.83;;
14187;SDS011;7175;51.978;5.330;2023-08-06T04:47:42;155.90;;;142.90;;
14187;SDS011;7175;51.978;5.330;2023-08-06T04:50:11;155.53;;;142.80;;
14187;SDS011;7175;51.978;5.330;2023-08-06T04:52:39;154.57;;;141.77;;
14187;SDS011;7175;51.978;5.330;2023-08-06T04:55:07;152.57;;;140.17;;
14187;SDS011;7175;51.978;5.330;2023-08-06T04:57:35;152.20;;;139.60;;
14187;SDS011;7175;51.978;5.330;2023-08-06T05:00:05;153.17;;;140.47;;
14187;SDS011;7175;51.978;5.330;2023-08-06T05:02:34;152.40;;;139.73;;
14187;SDS011;7175;51.978;5.330;2023-08-06T05:05:05;153.97;;;141.23;;
14187;SDS011;7175;51.978;5.330;2023-08-06T05:07:33;154.87;;;142.40;;
14187;SDS011;7175;51.978;5.330;2023-08-06T05:10:01;155.37;;;142.67;;
14187;SDS011;7175;51.978;5.330;2023-08-06T05:12:30;156.77;;;144.20;;
14187;SDS011;7175;51.978;5.330;2023-08-06T05:14:58;160.27;;;147.57;;
14187;SDS011;7175;51.978;5.330;2023-08-06T05:17:28;162.47;;;149.80;;
14187;SDS011;7175;51.978;5.330;2023-08-06T05:19:58;160.27;;;147.77;;
14187;SDS011;7175;51.978;5.330;2023-08-06T05:22:26;162.70;;;150.00;;
14187;SDS011;7175;51.978;5.330;2023-08-06T05:24:54;162.90;;;150.23;;
14187;SDS011;7175;51.978;5.330;2023-08-06T05:27:22;162.57;;;150.07;;
14187;SDS011;7175;51.978;5.330;2023-08-06T05:29:54;160.27;;;147.80;;
14187;SDS011;7175;51.978;5.330;2023-08-06T05:32:23;159.73;;;147.27;;
14187;SDS011;7175;51.978;5.330;2023-08-06T05:34:52;158.93;;;146.33;;
14187;SDS011;7175;51.978;5.330;2023-08-06T05:37:20;158.80;;;146.17;;
14187;SDS011;7175;51.978;5.330;2023-08-06T05:39:49;154.83;;;142.60;;
14187;SDS011;7175;51.978;5.330;2023-08-06T05:42:17;155.70;;;143.30;;
14187;SDS011;7175;51.978;5.330;2023-08-06T05:44:45;156.50;;;144.10;;
14187;SDS011;7175;51.978;5.330;2023-08-06T05:47:13;155.27;;;142.97;;
14187;SDS011;7175;51.978;5.330;2023-08-06T05:49:41;153.23;;;141.17;;
14187;SDS011;7175;51.978;5.330;2023-08-06T05:52:10;153.43;;;141.33;;
14187;SDS011;7175;51.978;5.330;2023-08-06T05:54:38;148.97;;;137.17;;
14187;SDS011;7175;51.978;5.330;2023-08-06T05:57:06;153.47;;;141.60;;
14187;SDS011;7175;51.978;5.330;2023-08-06T05:59:35;144.00;;;132.63;;
14187;SDS011;7175;51.978;5.330;2023-08-06T06:02:03;149.13;;;137.53;;
14187;SDS011;7175;51.978;5.330;2023-08-06T06:04:31;145.80;;;134.40;;
14187;SDS011;7175;51.978;5.330;2023-08-06T06:06:59;148.33;;;136.87;;
14187;SDS011;7175;51.978;5.330;2023-08-06T06:09:29;146.90;;;135.60;;
14187;SDS011;7175;51.978;5.330;2023-08-06T06:11:57;148.40;;;137.00;;
14187;SDS011;7175;51.978;5.330;2023-08-06T06:14:25;149.93;;;138.63;;
14187;SDS011;7175;51.978;5.330;2023-08-06T06:16:53;148.57;;;137.20;;
14187;SDS011;7175;51.978;5.330;2023-08-06T06:19:21;150.93;;;139.20;;
14187;SDS011;7175;51.978;5.330;2023-08-06T06:21:49;150.77;;;139.07;;
14187;SDS011;7175;51.978;5.330;2023-08-06T06:24:18;149.27;;;137.60;;
14187;SDS011;7175;51.978;5.330;2023-08-06T06:26:47;154.43;;;142.57;;
14187;SDS011;7175;51.978;5.330;2023-08-06T06:29:15;154.47;;;142.57;;
14187;SDS011;7175;51.978;5.330;2023-08-06T06:31:43;151.90;;;140.40;;
14187;SDS011;7175;51.978;5.330;2023-08-06T06:34:11;150.00;;;138.50;;
14187;SDS011;7175;51.978;5.330;2023-08-06T06:36:39;144.80;;;133.67;;
14187;SDS011;7175;51.978;5.330;2023-08-06T06:39:07;147.30;;;136.00;;
14187;SDS011;7175;51.978;5.330;2023-08-06T06:41:35;147.30;;;136.00;;
14187;SDS011;7175;51.978;5.330;2023-08-06T06:44:05;142.43;;;131.63;;
14187;SDS011;7175;51.978;5.330;2023-08-06T06:46:33;140.80;;;130.20;;
14187;SDS011;7175;51.978;5.330;2023-08-06T06:49:01;141.70;;;131.00;;
14187;SDS011;7175;51.978;5.330;2023-08-06T06:51:29;144.07;;;133.40;;
14187;SDS011;7175;51.978;5.330;2023-08-06T06:53:58;139.90;;;129.50;;
14187;SDS011;7175;51.978;5.330;2023-08-06T06:56:26;144.67;;;134.03;;
14187;SDS011;7175;51.978;5.330;2023-08-06T06:58:54;135.17;;;125.10;;
14187;SDS011;7175;51.978;5.330;2023-08-06T07:01:24;136.93;;;126.73;;
14187;SDS011;7175;51.978;5.330;2023-08-06T07:03:52;129.43;;;119.67;;
14187;SDS011;7175;51.978;5.330;2023-08-06T07:06:20;129.83;;;120.03;;
14187;SDS011;7175;51.978;5.330;2023-08-06T07:08:48;129.67;;;119.67;;
14187;SDS011;7175;51.978;5.330;2023-08-06T07:11:16;130.60;;;120.50;;
14187;SDS011;7175;51.978;5.330;2023-08-06T07:13:44;126.97;;;116.93;;
14187;SDS011;7175;51.978;5.330;2023-08-06T07:16:12;127.27;;;117.50;;
14187;SDS011;7175;51.978;5.330;2023-08-06T07:18:42;122.20;;;112.70;;
14187;SDS011;7175;51.978;5.330;2023-08-06T07:21:10;120.37;;;111.23;;
14187;SDS011;7175;51.978;5.330;2023-08-06T07:23:38;114.97;;;106.27;;
14187;SDS011;7175;51.978;5.330;2023-08-06T07:26:06;115.37;;;106.87;;
14187;SDS011;7175;51.978;5.330;2023-08-06T07:28:35;113.60;;;105.20;;
14187;SDS011;7175;51.978;5.330;2023-08-06T07:31:03;115.77;;;107.37;;
14187;SDS011;7175;51.978;5.330;2023-08-06T07:33:34;116.27;;;107.87;;
14187;SDS011;7175;51.978;5.330;2023-08-06T07:36:08;113.87;;;105.67;;
14187;SDS011;7175;51.978;5.330;2023-08-06T07:38:37;113.07;;;104.87;;
14187;SDS011;7175;51.978;5.330;2023-08-06T07:41:05;112.63;;;104.50;;
14187;SDS011;7175;51.978;5.330;2023-08-06T07:43:34;112.43;;;104.30;;
14187;SDS011;7175;51.978;5.330;2023-08-06T07:46:02;112.10;;;104.00;;
14187;SDS011;7175;51.978;5.330;2023-08-06T07:48:32;115.40;;;107.10;;
14187;SDS011;7175;51.978;5.330;2023-08-06T07:51:00;117.47;;;108.87;;
14187;SDS011;7175;51.978;5.330;2023-08-06T07:53:32;126.40;;;117.20;;
14187;SDS011;7175;51.978;5.330;2023-08-06T07:56:00;124.43;;;115.43;;
14187;SDS011;7175;51.978;5.330;2023-08-06T07:58:29;129.80;;;120.50;;
14187;SDS011;7175;51.978;5.330;2023-08-06T08:00:58;133.20;;;123.70;;
14187;SDS011;7175;51.978;5.330;2023-08-06T08:03:30;132.13;;;122.77;;
14187;SDS011;7175;51.978;5.330;2023-08-06T08:05:58;129.93;;;120.60;;
14187;SDS011;7175;51.978;5.330;2023-08-06T08:08:26;123.63;;;114.87;;
14187;SDS011;7175;51.978;5.330;2023-08-06T08:10:56;120.17;;;111.63;;
14187;SDS011;7175;51.978;5.330;2023-08-06T08:13:25;114.43;;;106.33;;
14187;SDS011;7175;51.978;5.330;2023-08-06T08:15:56;114.27;;;106.07;;
14187;SDS011;7175;51.978;5.330;2023-08-06T08:18:24;110.43;;;102.47;;
14187;SDS011;7175;51.978;5.330;2023-08-06T08:20:53;113.00;;;104.70;;
14187;SDS011;7175;51.978;5.330;2023-08-06T08:23:21;118.43;;;109.87;;
14187;SDS011;7175;51.978;5.330;2023-08-06T08:25:49;114.47;;;105.87;;
14187;SDS011;7175;51.978;5.330;2023-08-06T08:28:18;114.03;;;105.43;;
14187;SDS011;7175;51.978;5.330;2023-08-06T08:30:47;113.70;;;105.10;;
14187;SDS011;7175;51.978;5.330;2023-08-06T08:33:15;115.63;;;106.83;;
14187;SDS011;7175;51.978;5.330;2023-08-06T08:35:43;115.40;;;106.70;;
14187;SDS011;7175;51.978;5.330;2023-08-06T08:38:13;112.57;;;103.97;;
14187;SDS011;7175;51.978;5.330;2023-08-06T08:40:42;112.73;;;104.13;;
14187;SDS011;7175;51.978;5.330;2023-08-06T08:43:13;118.90;;;109.83;;
14187;SDS011;7175;51.978;5.330;2023-08-06T08:45:44;121.77;;;112.53;;
14187;SDS011;7175;51.978;5.330;2023-08-06T08:48:17;123.07;;;113.50;;
14187;SDS011;7175;51.978;5.330;2023-08-06T08:50:47;120.73;;;111.43;;
14187;SDS011;7175;51.978;5.330;2023-08-06T08:53:17;120.83;;;111.73;;
14187;SDS011;7175;51.978;5.330;2023-08-06T08:55:46;123.63;;;114.23;;
14187;SDS011;7175;51.978;5.330;2023-08-06T08:58:15;119.73;;;110.50;;
14187;SDS011;7175;51.978;5.330;2023-08-06T09:00:45;120.07;;;110.63;;
14187;SDS011;7175;51.978;5.330;2023-08-06T09:03:14;120.20;;;110.60;;
14187;SDS011;7175;51.978;5.330;2023-08-06T09:05:44;119.37;;;109.87;;
14187;SDS011;7175;51.978;5.330;2023-08-06T09:08:15;119.30;;;109.63;;
14187;SDS011;7175;51.978;5.330;2023-08-06T09:10:46;122.23;;;112.27;;
14187;SDS011;7175;51.978;5.330;2023-08-06T09:13:16;124.40;;;114.40;;
14187;SDS011;7175;51.978;5.330;2023-08-06T09:15:45;132.40;;;122.20;;
14187;SDS011;7175;51.978;5.330;2023-08-06T09:18:14;132.40;;;122.30;;
14187;SDS011;7175;51.978;5.330;2023-08-06T09:20:42;135.10;;;124.80;;
14187;SDS011;7175;51.978;5.330;2023-08-06T09:23:10;141.23;;;130.57;;
14187;SDS011;7175;51.978;5.330;2023-08-06T09:25:38;139.37;;;128.77;;
14187;SDS011;7175;51.978;5.330;2023-08-06T09:28:07;135.93;;;125.53;;
14187;SDS011;7175;51.978;5.330;2023-08-06T09:30:36;137.07;;;126.70;;
14187;SDS011;7175;51.978;5.330;2023-08-06T09:33:09;142.33;;;131.43;;
14187;SDS011;7175;51.978;5.330;2023-08-06T09:35:38;143.13;;;132.13;;
14187;SDS011;7175;51.978;5.330;2023-08-06T09:38:06;148.23;;;137.07;;
14187;SDS011;7175;51.978;5.330;2023-08-06T09:40:35;150.03;;;138.93;;
14187;SDS011;7175;51.978;5.330;2023-08-06T09:43:04;142.00;;;131.10;;
14187;SDS011;7175;51.978;5.330;2023-08-06T09:45:33;144.83;;;133.73;;
14187;SDS011;7175;51.978;5.330;2023-08-06T09:48:02;145.70;;;134.67;;
14187;SDS011;7175;51.978;5.330;2023-08-06T09:50:33;148.43;;;137.23;;
14187;SDS011;7175;51.978;5.330;2023-08-06T09:53:03;148.17;;;137.03;;
14187;SDS011;7175;51.978;5.330;2023-08-06T09:55:32;146.20;;;135.20;;
14187;SDS011;7175;51.978;5.330;2023-08-06T09:58:01;146.03;;;135.03;;
14187;SDS011;7175;51.978;5.330;2023-08-06T10:00:29;147.67;;;136.57;;
14187;SDS011;7175;51.978;5.330;2023-08-06T10:03:04;154.40;;;143.00;;
14187;SDS011;7175;51.978;5.330;2023-08-06T10:05:36;148.53;;;137.27;;
14187;SDS011;7175;51.978;5.330;2023-08-06T10:08:06;146.67;;;135.00;;
14187;SDS011;7175;51.978;5.330;2023-08-06T10:10:34;149.00;;;137.50;;
14187;SDS011;7175;51.978;5.330;2023-08-06T10:13:03;147.20;;;135.50;;
14187;SDS011;7175;51.978;5.330;2023-08-06T10:15:36;142.37;;;130.80;;
14187;SDS011;7175;51.978;5.330;2023-08-06T10:18:05;148.20;;;137.00;;
14187;SDS011;7175;51.978;5.330;2023-08-06T10:20:34;138.30;;;127.60;;
14187;SDS011;7175;51.978;5.330;2023-08-06T10:23:04;137.10;;;127.07;;
14187;SDS011;7175;51.978;5.330;2023-08-06T10:25:34;132.27;;;122.17;;
14187;SDS011;7175;51.978;5.330;2023-08-06T10:28:07;131.67;;;121.47;;
14187;SDS011;7175;51.978;5.330;2023-08-06T10:30:43;129.00;;;118.97;;
14187;SDS011;7175;51.978;5.330;2023-08-06T10:33:12;130.07;;;119.90;;
14187;SDS011;7175;51.978;5.330;2023-08-06T10:35:44;135.77;;;125.83;;
14187;SDS011;7175;51.978;5.330;2023-08-06T10:38:16;140.43;;;130.13;;
14187;SDS011;7175;51.978;5.330;2023-08-06T10:40:48;140.37;;;130.27;;
14187;SDS011;7175;51.978;5.330;2023-08-06T10:43:28;138.50;;;128.50;;
14187;SDS011;7175;51.978;5.330;2023-08-06T10:45:58;135.17;;;125.47;;
14187;SDS011;7175;51.978;5.330;2023-08-06T10:48:30;127.40;;;118.17;;
14187;SDS011;7175;51.978;5.330;2023-08-06T10:51:00;129.43;;;120.00;;
14187;SDS011;7175;51.978;5.330;2023-08-06T10:53:29;131.27;;;121.67;;
14187;SDS011;7175;51.978;5.330;2023-08-06T10:56:00;133.40;;;123.60;;
14187;SDS011;7175;51.978;5.330;2023-08-06T10:58:30;132.03;;;122.20;;
14187;SDS011;7175;51.978;5.330;2023-08-06T11:00:59;136.97;;;126.83;;
14187;SDS011;7175;51.978;5.330;2023-08-06T11:03:28;140.30;;;130.10;;
14187;SDS011;7175;51.978;5.330;2023-08-06T11:05:56;139.77;;;129.43;;
14187;SDS011;7175;51.978;5.330;2023-08-06T11:08:26;136.43;;;126.30;;
14187;SDS011;7175;51.978;5.330;2023-08-06T11:10:54;128.53;;;119.03;;
14187;SDS011;7175;51.978;5.330;2023-08-06T11:13:34;127.87;;;118.40;;
14187;SDS011;7175;51.978;5.330;2023-08-06T11:16:03;128.90;;;119.40;;
14187;SDS011;7175;51.978;5.330;2023-08-06T11:18:31;126.57;;;117.27;;
14187;SDS011;7175;51.978;5.330;2023-08-06T11:21:00;127.40;;;118.07;;
14187;SDS011;7175;51.978;5.330;2023-08-06T11:23:30;122.80;;;113.80;;
14187;SDS011;7175;51.978;5.330;2023-08-06T11:25:58;122.73;;;113.83;;
14187;SDS011;7175;51.978;5.330;2023-08-06T11:28:26;119.17;;;110.47;;
14187;SDS011;7175;51.978;5.330;2023-08-06T11:30:55;109.10;;;101.00;;
14187;SDS011;7175;51.978;5.330;2023-08-06T11:33:24;107.57;;;99.87;;
14187;SDS011;7175;51.978;5.330;2023-08-06T11:35:53;99.10;;;92.27;;
14187;SDS011;7175;51.978;5.330;2023-08-06T11:38:24;91.50;;;85.20;;
14187;SDS011;7175;51.978;5.330;2023-08-06T11:40:54;94.90;;;88.43;;
14187;SDS011;7175;51.978;5.330;2023-08-06T11:43:22;99.17;;;92.47;;
14187;SDS011;7175;51.978;5.330;2023-08-06T11:45:50;93.20;;;87.00;;
14187;SDS011;7175;51.978;5.330;2023-08-06T11:48:20;91.30;;;85.07;;
14187;SDS011;7175;51.978;5.330;2023-08-06T11:50:49;91.50;;;85.10;;
14187;SDS011;7175;51.978;5.330;2023-08-06T11:53:21;93.50;;;86.80;;
14187;SDS011;7175;51.978;5.330;2023-08-06T11:55:56;93.57;;;86.97;;
14187;SDS011;7175;51.978;5.330;2023-08-06T11:58:24;95.70;;;89.10;;
14187;SDS011;7175;51.978;5.330;2023-08-06T12:00:52;94.70;;;88.20;;
14187;SDS011;7175;51.978;5.330;2023-08-06T12:03:22;95.73;;;88.97;;
14187;SDS011;7175;51.978;5.330;2023-08-06T12:05:53;93.67;;;87.17;;
14187;SDS011;7175;51.978;5.330;2023-08-06T12:08:25;96.80;;;90.00;;
14187;SDS011;7175;51.978;5.330;2023-08-06T12:10:55;98.07;;;91.27;;
14187;SDS011;7175;51.978;5.330;2023-08-06T12:13:24;94.17;;;87.77;;
14187;SDS011;7175;51.978;5.330;2023-08-06T12:15:53;95.10;;;88.60;;
14187;SDS011;7175;51.978;5.330;2023-08-06T12:18:23;96.27;;;89.57;;
14187;SDS011;7175;51.978;5.330;2023-08-06T12:20:51;97.23;;;90.43;;
14187;SDS011;7175;51.978;5.330;2023-08-06T12:23:19;94.13;;;87.73;;
14187;SDS011;7175;51.978;5.330;2023-08-06T12:25:48;88.57;;;82.57;;
14187;SDS011;7175;51.978;5.330;2023-08-06T12:28:17;84.90;;;79.17;;
14187;SDS011;7175;51.978;5.330;2023-08-06T12:30:49;80.70;;;75.30;;
14187;SDS011;7175;51.978;5.330;2023-08-06T12:33:21;83.07;;;77.47;;
14187;SDS011;7175;51.978;5.330;2023-08-06T12:35:49;87.40;;;81.40;;
14187;SDS011;7175;51.978;5.330;2023-08-06T12:38:19;87.97;;;81.87;;
14187;SDS011;7175;51.978;5.330;2023-08-06T12:40:47;83.57;;;77.83;;
14187;SDS011;7175;51.978;5.330;2023-08-06T12:43:15;82.50;;;76.90;;
14187;SDS011;7175;51.978;5.330;2023-08-06T12:45:45;80.80;;;75.30;;
14187;SDS011;7175;51.978;5.330;2023-08-06T12:48:14;82.40;;;76.80;;
14187;SDS011;7175;51.978;5.330;2023-08-06T12:50:42;88.70;;;82.70;;
14187;SDS011;7175;51.978;5.330;2023-08-06T12:53:11;91.97;;;85.77;;
14187;SDS011;7175;51.978;5.330;2023-08-06T12:55:39;90.43;;;84.33;;
14187;SDS011;7175;51.978;5.330;2023-08-06T12:58:07;87.37;;;81.57;;
14187;SDS011;7175;51.978;5.330;2023-08-06T13:00:37;90.17;;;84.17;;
14187;SDS011;7175;51.978;5.330;2023-08-06T13:03:05;91.43;;;85.30;;
14187;SDS011;7175;51.978;5.330;2023-08-06T13:05:33;95.10;;;88.80;;
14187;SDS011;7175;51.978;5.330;2023-08-06T13:08:02;92.17;;;86.07;;
14187;SDS011;7175;51.978;5.330;2023-08-06T13:10:30;90.83;;;84.90;;
14187;SDS011;7175;51.978;5.330;2023-08-06T13:12:58;90.40;;;84.50;;
14187;SDS011;7175;51.978;5.330;2023-08-06T13:15:27;89.63;;;83.73;;
14187;SDS011;7175;51.978;5.330;2023-08-06T13:17:56;93.00;;;86.87;;
14187;SDS011;7175;51.978;5.330;2023-08-06T13:20:24;95.47;;;89.27;;
14187;SDS011;7175;51.978;5.330;2023-08-06T13:22:54;91.23;;;85.17;;
14187;SDS011;7175;51.978;5.330;2023-08-06T13:25:22;85.10;;;79.60;;
14187;SDS011;7175;51.978;5.330;2023-08-06T13:27:50;87.50;;;81.80;;
14187;SDS011;7175;51.978;5.330;2023-08-06T13:30:18;86.83;;;81.03;;
14187;SDS011;7175;51.978;5.330;2023-08-06T13:32:46;93.00;;;86.90;;
14187;SDS011;7175;51.978;5.330;2023-08-06T13:35:16;90.53;;;84.63;;
14187;SDS011;7175;51.978;5.330;2023-08-06T13:37:44;89.07;;;83.27;;
14187;SDS011;7175;51.978;5.330;2023-08-06T13:40:14;91.43;;;85.33;;
14187;SDS011;7175;51.978;5.330;2023-08-06T13:42:42;90.70;;;84.70;;
14187;SDS011;7175;51.978;5.330;2023-08-06T13:45:10;89.30;;;83.50;;
14187;SDS011;7175;51.978;5.330;2023-08-06T13:47:38;86.47;;;80.77;;
14187;SDS011;7175;51.978;5.330;2023-08-06T13:50:06;88.70;;;82.80;;
14187;SDS011;7175;51.978;5.330;2023-08-06T13:52:36;87.50;;;81.70;;
14187;SDS011;7175;51.978;5.330;2023-08-06T13:55:04;87.63;;;81.83;;
14187;SDS011;7175;51.978;5.330;2023-08-06T13:57:33;91.17;;;85.17;;
14187;SDS011;7175;51.978;5.330;2023-08-06T14:00:02;91.57;;;85.47;;
14187;SDS011;7175;51.978;5.330;2023-08-06T14:02:31;94.90;;;88.60;;
14187;SDS011;7175;51.978;5.330;2023-08-06T14:04:59;92.27;;;86.07;;
14187;SDS011;7175;51.978;5.330;2023-08-06T14:07:27;93.33;;;87.20;;
14187;SDS011;7175;51.978;5.330;2023-08-06T14:09:57;89.40;;;83.40;;
14187;SDS011;7175;51.978;5.330;2023-08-06T14:12:25;89.90;;;84.00;;
14187;SDS011;7175;51.978;5.330;2023-08-06T14:14:53;91.20;;;85.13;;
14187;SDS011;7175;51.978;5.330;2023-08-06T14:17:21;88.77;;;82.87;;
14187;SDS011;7175;51.978;5.330;2023-08-06T14:19:49;93.13;;;86.90;;
14187;SDS011;7175;51.978;5.330;2023-08-06T14:22:17;91.77;;;85.47;;
14187;SDS011;7175;51.978;5.330;2023-08-06T14:24:45;91.30;;;85.00;;